Time;durP1;ratioP1;P1;durP2;ratioP2;P2;SDS_P1;SDS_P2;PMS_P1;PMS_P2;Temp;Humidity;BMP_temperature;BMP_pressure;BME280_temperature;BME280_humidity;BME280_pressure;Samples;Min_cycle;Max_cycle;Signal;HPM_P1;HPM_P2
2024/04/14 00:02:06;;;;;;;9.60;1.73;;;12.20;99.90;;;;;;5456054;26;20018;-64
2024/04/14 00:04:32;;;;;;;7.40;1.50;;;12.20;99.90;;;;;;5455831;26;20317;-65
2024/04/14 00:06:59;;;;;;;8.32;1.42;;;12.20;99.90;;;;;;5456082;26;20476;-60
2024/04/14 00:09:26;;;;;;;5.80;1.30;;;12.20;99.90;;;;;;5456059;26;20014;-60
2024/04/14 00:11:53;;;;;;;7.93;1.73;;;12.20;99.90;;;;;;5455943;26;20007;-61
2024/04/14 00:14:23;;;;;;;5.68;1.50;;;12.10;99.90;;;;;;5456032;26;20340;-60
2024/04/14 00:16:50;;;;;;;4.78;1.30;;;12.10;99.90;;;;;;5453987;26;20014;-61
2024/04/14 00:19:20;;;;;;;10.50;1.45;;;12.10;99.90;;;;;;5455825;26;19999;-60
2024/04/14 00:21:47;;;;;;;9.02;1.83;;;12.10;99.90;;;;;;5455868;26;20048;-61
2024/04/14 00:24:14;;;;;;;8.75;1.50;;;12.10;99.90;;;;;;5455658;26;20355;-60
2024/04/14 00:26:41;;;;;;;6.70;1.50;;;12.10;99.90;;;;;;5455937;26;20018;-60
2024/04/14 00:29:08;;;;;;;6.72;1.77;;;12.00;99.90;;;;;;5455780;26;20010;-60
2024/04/14 00:31:35;;;;;;;5.70;1.40;;;12.00;99.90;;;;;;5455646;26;20033;-61
2024/04/14 00:34:02;;;;;;;7.00;1.60;;;12.00;99.90;;;;;;5455654;26;20015;-60
2024/04/14 00:36:29;;;;;;;7.20;1.80;;;12.00;99.90;;;;;;5455613;26;20021;-60
2024/04/14 00:38:56;;;;;;;8.45;1.67;;;12.00;99.90;;;;;;5455646;26;20010;-61
2024/04/14 00:41:23;;;;;;;8.82;1.92;;;11.90;99.90;;;;;;5455606;26;20003;-61
2024/04/14 00:43:50;;;;;;;9.55;1.90;;;11.90;99.90;;;;;;5455429;26;20524;-61
2024/04/14 00:46:17;;;;;;;5.88;1.40;;;11.80;99.90;;;;;;5455427;26;20003;-62
2024/04/14 00:48:44;;;;;;;6.13;1.60;;;11.80;99.90;;;;;;5455592;26;20002;-62
2024/04/14 00:51:11;;;;;;;6.68;1.63;;;11.80;99.90;;;;;;5455691;26;20006;-62
2024/04/14 00:53:38;;;;;;;9.70;1.70;;;11.80;99.90;;;;;;5455492;26;20455;-61
2024/04/14 00:56:05;;;;;;;5.63;1.20;;;11.80;99.90;;;;;;5455399;26;20003;-61
2024/04/14 00:58:32;;;;;;;7.13;1.48;;;11.80;99.90;;;;;;5455425;26;20003;-61
2024/04/14 01:00:59;;;;;;;6.05;1.50;;;11.80;99.90;;;;;;5455386;26;20368;-61
2024/04/14 01:03:26;;;;;;;6.80;1.75;;;11.80;99.90;;;;;;5453610;26;20003;-61
2024/04/14 01:05:53;;;;;;;7.32;1.80;;;11.80;99.90;;;;;;5453616;26;20336;-62
2024/04/14 01:08:20;;;;;;;7.40;1.35;;;11.90;99.90;;;;;;5455229;26;20370;-62
2024/04/14 01:10:47;;;;;;;8.88;1.80;;;11.90;99.90;;;;;;5455022;26;20007;-62
2024/04/14 01:13:13;;;;;;;6.65;1.55;;;11.90;99.90;;;;;;5455120;26;20051;-62
2024/04/14 01:15:40;;;;;;;6.18;1.70;;;12.00;99.90;;;;;;5454946;26;20007;-61
2024/04/14 01:18:10;;;;;;;8.15;1.52;;;12.00;99.90;;;;;;5455131;26;20054;-63
2024/04/14 01:20:37;;;;;;;7.72;1.70;;;12.00;99.90;;;;;;5455002;26;20074;-62
2024/04/14 01:23:04;;;;;;;7.38;2.08;;;12.00;99.90;;;;;;5453177;26;20406;-62
2024/04/14 01:25:31;;;;;;;6.63;1.63;;;12.00;99.90;;;;;;5454754;26;20470;-62
2024/04/14 01:27:57;;;;;;;5.32;1.63;;;11.90;99.90;;;;;;5454905;26;20014;-62
2024/04/14 01:30:24;;;;;;;8.48;1.45;;;12.00;99.90;;;;;;5453096;26;20013;-62
2024/04/14 01:32:51;;;;;;;7.85;1.60;;;11.90;99.90;;;;;;5454971;26;20003;-62
2024/04/14 01:35:18;;;;;;;5.70;1.45;;;11.90;99.90;;;;;;5454963;26;20018;-62
2024/04/14 01:37:45;;;;;;;6.78;1.70;;;11.90;99.90;;;;;;5455096;26;20006;-61
2024/04/14 01:40:12;;;;;;;8.27;1.88;;;11.90;99.90;;;;;;5454861;26;20467;-62
2024/04/14 01:42:39;;;;;;;6.93;1.50;;;11.90;99.90;;;;;;5454771;26;20333;-61
2024/04/14 01:45:09;;;;;;;4.32;1.38;;;11.90;99.90;;;;;;5454691;26;19999;-62
2024/04/14 01:47:40;;;;;;;8.15;1.80;;;11.80;99.90;;;;;;5454829;26;20011;-62
2024/04/14 01:50:07;;;;;;;6.97;1.55;;;11.80;99.90;;;;;;5423123;26;20401;-62
2024/04/14 01:52:34;;;;;;;8.15;1.83;;;11.80;99.90;;;;;;5454467;26;20331;-61
2024/04/14 01:55:01;;;;;;;7.70;2.22;;;11.70;99.90;;;;;;5454448;26;20044;-62
2024/04/14 01:57:28;;;;;;;8.40;1.65;;;11.60;99.90;;;;;;5454487;26;20017;-62
2024/04/14 01:59:55;;;;;;;9.57;2.90;;;11.60;99.90;;;;;;5452805;26;20033;-60
2024/04/14 02:02:22;;;;;;;10.77;2.72;;;11.50;99.90;;;;;;5454448;26;20015;-59
2024/04/14 02:04:49;;;;;;;5.68;1.50;;;11.50;99.90;;;;;;5454418;26;20003;-60
2024/04/14 02:07:16;;;;;;;7.88;1.90;;;11.50;99.90;;;;;;5454312;26;20468;-61
2024/04/14 02:09:43;;;;;;;8.70;2.40;;;11.40;99.90;;;;;;5454366;26;20013;-60
2024/04/14 02:12:11;;;;;;;7.38;2.15;;;11.40;99.90;;;;;;5454252;26;20417;-61
2024/04/14 02:14:38;;;;;;;9.95;2.13;;;11.40;99.90;;;;;;5452845;26;19995;-60
2024/04/14 02:17:04;;;;;;;9.07;2.30;;;11.40;99.90;;;;;;5453624;26;20049;-60
2024/04/14 02:19:31;;;;;;;9.38;1.80;;;11.40;99.90;;;;;;5454087;26;20026;-61
2024/04/14 02:21:58;;;;;;;8.18;1.90;;;11.30;99.90;;;;;;5454227;26;20021;-61
2024/04/14 02:24:29;;;;;;;7.72;2.13;;;11.30;99.90;;;;;;5452154;26;20350;-61
2024/04/14 02:26:56;;;;;;;7.78;1.77;;;11.30;99.90;;;;;;5454117;26;20003;-61
2024/04/14 02:29:23;;;;;;;9.82;2.10;;;11.30;99.90;;;;;;5452588;26;20513;-61
2024/04/14 02:31:50;;;;;;;9.93;2.28;;;11.30;99.90;;;;;;5452154;26;20018;-61
2024/04/14 02:34:16;;;;;;;8.55;2.00;;;11.30;99.90;;;;;;5453898;26;20010;-61
2024/04/14 02:36:43;;;;;;;7.22;1.92;;;11.30;99.90;;;;;;5453991;26;20049;-62
2024/04/14 02:39:12;;;;;;;10.77;2.35;;;11.20;99.90;;;;;;5453914;26;20448;-62
2024/04/14 02:41:39;;;;;;;9.90;2.60;;;11.20;99.90;;;;;;5453926;26;20018;-62
2024/04/14 02:44:05;;;;;;;10.02;1.95;;;11.20;99.90;;;;;;5453922;26;20003;-63
2024/04/14 02:46:32;;;;;;;8.70;2.13;;;11.20;99.90;;;;;;5453687;26;20007;-63
2024/04/14 02:48:59;;;;;;;8.73;2.25;;;11.20;99.90;;;;;;5453809;26;20007;-62
2024/04/14 02:51:26;;;;;;;9.07;2.30;;;11.10;99.90;;;;;;5453631;26;20006;-62
2024/04/14 02:53:53;;;;;;;7.20;2.20;;;11.10;99.90;;;;;;5453692;26;20031;-62
2024/04/14 02:56:21;;;;;;;10.18;2.42;;;11.10;99.90;;;;;;5453665;26;20003;-64
2024/04/14 02:58:48;;;;;;;9.25;2.30;;;11.10;99.90;;;;;;5453580;26;20014;-62
2024/04/14 03:01:16;;;;;;;10.15;2.78;;;11.00;99.90;;;;;;5453454;26;20007;-63
2024/04/14 03:03:44;;;;;;;8.85;2.80;;;11.00;99.90;;;;;;5453405;26;19998;-62
2024/04/14 03:06:11;;;;;;;12.75;2.60;;;11.00;99.90;;;;;;5453476;26;20083;-62
2024/04/14 03:08:38;;;;;;;10.18;2.80;;;10.90;99.90;;;;;;5453364;26;20076;-63
2024/04/14 03:11:05;;;;;;;10.68;2.63;;;10.90;99.90;;;;;;5453580;26;20003;-63
2024/04/14 03:13:32;;;;;;;13.77;2.80;;;10.90;99.90;;;;;;5453324;26;20034;-64
2024/04/14 03:15:59;;;;;;;13.45;2.83;;;10.80;99.90;;;;;;5453189;26;20372;-63
2024/04/14 03:18:26;;;;;;;8.60;2.55;;;10.80;99.90;;;;;;5453554;26;20048;-63
2024/04/14 03:20:53;;;;;;;8.60;2.42;;;10.80;99.90;;;;;;5453141;26;20320;-63
2024/04/14 03:23:19;;;;;;;12.07;2.80;;;10.80;99.90;;;;;;5453256;26;20002;-63
2024/04/14 03:25:46;;;;;;;9.43;2.88;;;10.80;99.90;;;;;;5452989;26;20022;-63
2024/04/14 03:28:13;;;;;;;10.05;2.80;;;10.80;99.90;;;;;;5454196;26;20078;-63
2024/04/14 03:30:40;;;;;;;11.35;2.60;;;10.80;99.90;;;;;;5456589;26;20051;-63
2024/04/14 03:33:07;;;;;;;10.73;2.85;;;10.80;99.90;;;;;;5456610;26;20417;-63
2024/04/14 03:35:34;;;;;;;10.75;2.85;;;10.70;99.90;;;;;;5456567;26;20007;-63
2024/04/14 03:38:01;;;;;;;12.27;2.90;;;10.70;99.90;;;;;;5456509;26;20003;-63
2024/04/14 03:40:28;;;;;;;9.05;2.50;;;10.70;99.90;;;;;;5456589;26;20034;-63
2024/04/14 03:42:54;;;;;;;11.82;3.15;;;10.70;99.90;;;;;;5456404;26;20003;-63
2024/04/14 03:45:24;;;;;;;11.82;3.00;;;10.60;99.90;;;;;;5456452;26;20017;-63
2024/04/14 03:47:54;;;;;;;13.40;3.42;;;10.60;99.90;;;;;;5456425;26;20002;-63
2024/04/14 03:50:21;;;;;;;10.52;2.75;;;10.60;99.90;;;;;;5456538;26;20032;-62
2024/04/14 03:52:48;;;;;;;11.35;2.80;;;10.60;99.90;;;;;;5456404;26;20015;-63
2024/04/14 03:55:15;;;;;;;10.40;2.65;;;10.70;99.90;;;;;;5456318;26;20018;-63
2024/04/14 03:57:42;;;;;;;13.43;2.90;;;10.60;99.90;;;;;;5456224;26;20014;-63
2024/04/14 04:00:10;;;;;;;8.55;2.90;;;10.60;99.90;;;;;;5456261;26;20013;-63
2024/04/14 04:02:43;;;;;;;10.00;2.83;;;10.60;99.90;;;;;;5456192;26;20138;-63
2024/04/14 04:05:10;;;;;;;14.05;3.17;;;10.60;99.90;;;;;;5456239;26;20407;-63
2024/04/14 04:07:37;;;;;;;10.65;3.00;;;10.60;99.90;;;;;;5455901;26;20007;-64
2024/04/14 04:10:03;;;;;;;13.23;3.05;;;10.60;99.90;;;;;;5456018;26;20035;-63
2024/04/14 04:12:33;;;;;;;13.82;3.00;;;10.60;99.90;;;;;;5455860;26;20014;-64
2024/04/14 04:15:03;;;;;;;12.80;2.70;;;10.50;99.90;;;;;;5454229;26;20017;-64
2024/04/14 04:17:30;;;;;;;9.88;3.10;;;10.50;99.90;;;;;;5456032;26;20075;-63
2024/04/14 04:19:57;;;;;;;9.52;2.78;;;10.50;99.90;;;;;;5456041;26;20011;-63
2024/04/14 04:22:24;;;;;;;11.68;2.80;;;10.50;99.90;;;;;;5456069;26;20007;-62
2024/04/14 04:24:51;;;;;;;11.00;3.15;;;10.50;99.90;;;;;;5455886;26;20014;-63
2024/04/14 04:27:18;;;;;;;8.82;3.17;;;10.50;99.90;;;;;;5455818;26;20079;-64
2024/04/14 04:29:45;;;;;;;9.38;2.75;;;10.50;99.90;;;;;;5455747;26;20015;-62
2024/04/14 04:32:16;;;;;;;11.93;2.63;;;10.50;99.90;;;;;;5455655;26;20007;-63
2024/04/14 04:34:43;;;;;;;9.20;2.95;;;10.50;99.90;;;;;;5456051;26;20014;-62
2024/04/14 04:37:10;;;;;;;9.90;2.55;;;10.50;99.90;;;;;;5455518;26;20017;-63
2024/04/14 04:39:37;;;;;;;9.68;3.22;;;10.50;99.90;;;;;;5455412;26;20003;-62
2024/04/14 04:42:04;;;;;;;9.80;2.80;;;10.50;99.90;;;;;;5453850;26;20018;-62
2024/04/14 04:44:31;;;;;;;12.93;3.22;;;10.50;99.90;;;;;;5455705;26;20014;-63
2024/04/14 04:46:57;;;;;;;6.85;2.38;;;10.40;99.90;;;;;;5455498;26;20013;-62
2024/04/14 04:49:24;;;;;;;11.73;2.80;;;10.40;99.90;;;;;;5455511;26;20003;-62
2024/04/14 04:51:51;;;;;;;13.05;2.72;;;10.40;99.90;;;;;;5455378;26;20014;-61
2024/04/14 04:54:18;;;;;;;12.13;2.70;;;10.40;99.90;;;;;;5453730;26;20022;-61
2024/04/14 04:56:45;;;;;;;10.88;3.08;;;10.40;99.90;;;;;;5455235;26;20043;-61
2024/04/14 04:59:12;;;;;;;12.73;3.08;;;10.40;99.90;;;;;;5455347;26;19994;-62
2024/04/14 05:01:39;;;;;;;9.88;2.60;;;10.30;99.90;;;;;;5455183;26;20003;-61
2024/04/14 05:04:06;;;;;;;13.70;2.80;;;10.30;99.90;;;;;;5455261;26;20343;-62
2024/04/14 05:06:33;;;;;;;12.15;3.03;;;10.30;99.90;;;;;;5455173;26;20053;-62
2024/04/14 05:09:00;;;;;;;13.45;3.00;;;10.30;99.90;;;;;;5455258;26;20071;-62
2024/04/14 05:11:26;;;;;;;11.18;2.92;;;10.30;99.90;;;;;;5455133;26;20014;-62
2024/04/14 05:13:53;;;;;;;12.75;3.00;;;10.30;99.90;;;;;;5455160;26;20006;-63
2024/04/14 05:16:22;;;;;;;12.00;3.30;;;10.20;99.90;;;;;;5455069;26;20007;-64
2024/04/14 05:18:50;;;;;;;9.98;2.92;;;10.20;99.90;;;;;;5455101;26;20470;-62
2024/04/14 05:21:17;;;;;;;12.77;2.90;;;10.20;99.90;;;;;;5453333;26;20418;-61
2024/04/14 05:23:44;;;;;;;8.95;3.42;;;10.20;99.90;;;;;;5455011;26;20003;-62
2024/04/14 05:26:10;;;;;;;13.98;3.58;;;10.20;99.90;;;;;;5454961;26;20080;-59
2024/04/14 05:28:37;;;;;;;13.18;3.45;;;10.20;99.90;;;;;;5454941;26;20014;-62
2024/04/14 05:31:04;;;;;;;12.48;2.90;;;10.20;99.90;;;;;;5455153;26;20521;-62
2024/04/14 05:33:31;;;;;;;16.27;3.85;;;10.20;99.90;;;;;;5454925;26;20011;-61
2024/04/14 05:35:58;;;;;;;12.77;3.10;;;10.20;99.90;;;;;;5454841;26;20376;-61
2024/04/14 05:38:25;;;;;;;13.32;3.55;;;10.20;99.90;;;;;;5454736;26;20038;-61
2024/04/14 05:40:52;;;;;;;11.65;3.28;;;10.20;99.90;;;;;;5454962;26;20019;-61
2024/04/14 05:43:19;;;;;;;12.02;2.78;;;10.20;99.90;;;;;;5453113;26;19999;-61
2024/04/14 05:45:48;;;;;;;9.45;3.00;;;10.20;99.90;;;;;;5454639;26;20018;-61
2024/04/14 05:48:15;;;;;;;12.65;3.00;;;10.20;99.90;;;;;;5454478;26;20014;-61
2024/04/14 05:50:42;;;;;;;12.13;3.20;;;10.30;99.90;;;;;;5453658;26;20006;-61
2024/04/14 05:53:09;;;;;;;15.40;3.40;;;10.30;99.90;;;;;;5454465;26;19998;-61
2024/04/14 05:55:36;;;;;;;16.80;3.95;;;10.30;99.90;;;;;;5454474;26;20378;-61
2024/04/14 05:58:04;;;;;;;17.65;3.97;;;10.30;99.90;;;;;;5454503;26;20344;-61
2024/04/14 06:00:31;;;;;;;10.52;2.95;;;10.40;99.90;;;;;;5454545;26;20014;-61
2024/04/14 06:02:59;;;;;;;12.95;3.03;;;10.40;99.90;;;;;;5454303;26;19998;-62
2024/04/14 06:05:27;;;;;;;14.05;3.47;;;10.40;99.90;;;;;;5454310;26;20019;-62
2024/04/14 06:07:54;;;;;;;13.45;3.50;;;10.40;99.90;;;;;;5454406;26;20002;-62
2024/04/14 06:10:20;;;;;;;10.55;3.28;;;10.40;99.90;;;;;;5454507;26;20003;-61
2024/04/14 06:12:47;;;;;;;8.45;3.03;;;10.50;99.90;;;;;;5454330;26;20018;-62
2024/04/14 06:15:14;;;;;;;12.38;3.35;;;10.50;99.90;;;;;;5454151;26;20025;-62
2024/04/14 06:17:43;;;;;;;11.15;3.60;;;10.50;99.90;;;;;;5454125;26;20011;-63
2024/04/14 06:20:10;;;;;;;13.23;3.45;;;10.50;99.90;;;;;;5454398;26;20019;-63
2024/04/14 06:22:36;;;;;;;12.02;3.25;;;10.60;99.90;;;;;;5454292;26;19998;-64
2024/04/14 06:25:03;;;;;;;17.23;4.13;;;10.70;99.90;;;;;;5454123;26;20018;-63
2024/04/14 06:27:31;;;;;;;12.93;3.05;;;10.70;99.90;;;;;;5454320;26;19999;-64
2024/04/14 06:29:57;;;;;;;15.88;4.25;;;10.70;99.90;;;;;;5454003;26;20055;-63
2024/04/14 06:32:25;;;;;;;13.82;3.75;;;10.70;99.90;;;;;;5453803;26;20010;-63
2024/04/14 06:34:52;;;;;;;15.15;3.72;;;10.70;99.90;;;;;;5453957;26;20474;-63
2024/04/14 06:37:19;;;;;;;14.23;3.40;;;10.80;99.90;;;;;;5453795;26;20048;-62
2024/04/14 06:39:46;;;;;;;9.90;3.50;;;10.80;99.90;;;;;;5453914;26;20078;-63
2024/04/14 06:42:13;;;;;;;12.85;3.47;;;10.90;99.90;;;;;;5453822;26;20022;-62
2024/04/14 06:44:42;;;;;;;10.00;3.28;;;10.90;99.90;;;;;;5453880;26;20075;-63
2024/04/14 06:47:10;;;;;;;12.80;3.50;;;10.90;99.90;;;;;;5453583;26;20017;-62
2024/04/14 06:49:37;;;;;;;9.57;3.17;;;10.90;99.90;;;;;;5453795;26;20080;-62
2024/04/14 06:52:04;;;;;;;14.32;3.67;;;10.90;99.90;;;;;;5422095;26;20405;-62
2024/04/14 06:54:31;;;;;;;14.82;3.80;;;10.90;99.90;;;;;;5453722;26;20015;-62
2024/04/14 06:56:58;;;;;;;12.10;3.65;;;10.90;99.90;;;;;;5453500;26;20010;-62
2024/04/14 06:59:25;;;;;;;11.85;3.47;;;10.90;99.90;;;;;;5453543;26;20520;-63
2024/04/14 07:01:52;;;;;;;16.40;3.42;;;10.90;99.90;;;;;;5453093;26;19999;-63
2024/04/14 07:04:19;;;;;;;14.05;3.53;;;10.90;99.90;;;;;;5452337;26;20013;-62
2024/04/14 07:06:46;;;;;;;15.38;3.58;;;10.90;99.90;;;;;;5453339;26;20011;-62
2024/04/14 07:09:13;;;;;;;14.45;3.90;;;10.90;99.90;;;;;;5453280;26;20046;-62
2024/04/14 07:11:40;;;;;;;16.15;3.97;;;10.90;99.90;;;;;;5453328;26;20039;-62
2024/04/14 07:14:07;;;;;;;11.20;3.28;;;10.90;99.90;;;;;;5453282;26;20344;-62
2024/04/14 07:16:34;;;;;;;15.13;3.58;;;10.90;99.90;;;;;;5453258;26;20011;-61
2024/04/14 07:19:00;;;;;;;12.38;3.13;;;10.90;99.90;;;;;;5453461;26;20015;-62
2024/04/14 07:21:27;;;;;;;12.40;3.40;;;11.00;99.90;;;;;;5453336;26;20002;-62
2024/04/14 07:23:54;;;;;;;9.88;2.88;;;11.00;99.90;;;;;;5453165;26;20035;-62
2024/04/14 07:26:22;;;;;;;10.57;2.97;;;10.90;99.90;;;;;;5453197;26;20466;-64
2024/04/14 07:28:49;;;;;;;12.40;3.60;;;10.90;99.90;;;;;;5451229;26;20003;-63
2024/04/14 07:31:16;;;;;;;13.50;3.17;;;11.00;99.90;;;;;;5453011;26;20014;-62
2024/04/14 07:33:43;;;;;;;10.65;2.80;;;11.10;99.90;;;;;;5452961;26;20049;-62
2024/04/14 07:36:10;;;;;;;14.68;3.53;;;11.10;99.90;;;;;;5452752;26;20017;-62
2024/04/14 07:38:37;;;;;;;15.00;3.25;;;11.10;99.90;;;;;;5452803;26;20078;-62
2024/04/14 07:41:04;;;;;;;17.02;3.17;;;11.20;99.90;;;;;;5452894;26;20616;-62
2024/04/14 07:43:31;;;;;;;8.88;2.63;;;11.20;99.90;;;;;;5452781;26;20014;-62
2024/04/14 07:45:57;;;;;;;12.23;3.17;;;11.30;99.90;;;;;;5452568;26;20325;-62
2024/04/14 07:48:24;;;;;;;8.90;2.40;;;11.40;99.90;;;;;;5452742;26;20003;-62
2024/04/14 07:50:51;;;;;;;10.30;2.40;;;11.40;99.90;;;;;;5452912;26;20003;-60
2024/04/14 07:53:18;;;;;;;12.15;2.67;;;11.50;99.90;;;;;;5452462;26;20021;-61
2024/04/14 07:55:45;;;;;;;12.35;2.35;;;11.50;99.90;;;;;;5450610;26;20027;-62
2024/04/14 07:58:12;;;;;;;10.98;2.40;;;11.50;99.90;;;;;;5452592;26;20079;-62
2024/04/14 08:00:39;;;;;;;9.45;1.73;;;11.50;99.90;;;;;;5452447;26;20010;-62
2024/04/14 08:03:06;;;;;;;7.78;1.95;;;11.60;99.90;;;;;;5452434;26;20333;-62
2024/04/14 08:05:33;;;;;;;10.15;2.72;;;11.60;99.90;;;;;;5452355;26;20014;-62
2024/04/14 08:08:04;;;;;;;7.35;1.73;;;11.70;99.90;;;;;;5452412;26;20019;-61
2024/04/14 08:10:30;;;;;;;8.40;1.92;;;11.60;99.90;;;;;;5450453;26;20444;-62
2024/04/14 08:12:57;;;;;;;7.88;2.10;;;11.70;99.90;;;;;;5452159;26;20018;-62
2024/04/14 08:15:24;;;;;;;7.22;1.77;;;11.70;99.90;;;;;;5454950;26;20003;-61
2024/04/14 08:17:51;;;;;;;9.45;2.15;;;11.80;99.90;;;;;;5455771;26;20006;-62
2024/04/14 08:20:18;;;;;;;10.35;2.10;;;11.90;99.90;;;;;;5455682;26;20032;-62
2024/04/14 08:22:46;;;;;;;9.27;2.40;;;11.90;99.90;;;;;;5455710;26;20007;-62
2024/04/14 08:25:12;;;;;;;8.63;2.05;;;12.00;99.90;;;;;;5455702;26;19999;-61
2024/04/14 08:27:40;;;;;;;9.75;2.60;;;12.20;99.90;;;;;;5455709;26;20010;-62
2024/04/14 08:30:07;;;;;;;7.25;1.77;;;12.20;99.90;;;;;;5455795;26;19999;-62
2024/04/14 08:32:34;;;;;;;12.50;2.33;;;12.30;99.90;;;;;;5455432;26;20014;-63
2024/04/14 08:35:01;;;;;;;9.73;2.50;;;12.30;99.90;;;;;;5455519;26;20046;-62
2024/04/14 08:37:28;;;;;;;10.77;1.90;;;12.40;99.90;;;;;;5455625;26;20018;-63
2024/04/14 08:39:55;;;;;;;9.50;2.20;;;12.50;99.90;;;;;;5453793;26;20013;-62
2024/04/14 08:42:22;;;;;;;10.63;1.83;;;12.40;99.90;;;;;;5455612;26;20011;-63
2024/04/14 08:44:49;;;;;;;7.88;1.90;;;12.40;99.90;;;;;;5455394;26;20051;-63
2024/04/14 08:47:16;;;;;;;8.43;1.83;;;12.40;99.90;;;;;;5453587;26;20361;-62
2024/04/14 08:49:42;;;;;;;7.82;1.90;;;12.50;99.90;;;;;;5455341;26;20075;-61
2024/04/14 08:52:09;;;;;;;13.30;2.30;;;12.60;99.90;;;;;;5455239;26;20018;-62
2024/04/14 08:54:36;;;;;;;9.25;2.25;;;12.80;99.90;;;;;;5455212;26;20336;-62
2024/04/14 08:57:04;;;;;;;10.65;2.42;;;12.80;99.90;;;;;;5454885;26;20022;-62
2024/04/14 08:59:31;;;;;;;7.55;2.55;;;12.70;99.90;;;;;;5455251;26;20015;-63
2024/04/14 09:01:58;;;;;;;8.90;2.78;;;12.70;99.90;;;;;;5455178;26;20015;-63
2024/04/14 09:04:25;;;;;;;8.50;2.28;;;12.90;99.90;;;;;;5455057;26;20075;-63
2024/04/14 09:06:53;;;;;;;10.20;1.92;;;12.90;99.90;;;;;;5453273;26;20344;-63
2024/04/14 09:09:19;;;;;;;8.55;2.08;;;12.90;99.90;;;;;;5455461;26;20317;-63
2024/04/14 09:11:46;;;;;;;8.43;1.77;;;12.90;99.90;;;;;;5455313;26;20003;-62
2024/04/14 09:14:13;;;;;;;13.23;2.08;;;12.90;99.90;;;;;;5455025;26;20014;-62
2024/04/14 09:16:40;;;;;;;14.00;2.78;;;12.90;99.90;;;;;;5454776;26;20455;-63
2024/04/14 09:19:07;;;;;;;7.13;1.98;;;12.80;99.90;;;;;;5455011;26;20018;-63
2024/04/14 09:21:34;;;;;;;9.57;2.20;;;12.80;99.90;;;;;;5454817;26;20011;-63
2024/04/14 09:24:01;;;;;;;4.57;1.42;;;12.90;99.90;;;;;;5454703;26;20014;-62
2024/04/14 09:26:28;;;;;;;8.38;2.03;;;12.80;99.90;;;;;;5453452;26;20021;-62
2024/04/14 09:28:55;;;;;;;8.15;1.90;;;12.70;99.90;;;;;;5454858;26;20042;-62
2024/04/14 09:31:22;;;;;;;9.07;1.88;;;12.80;99.90;;;;;;5454743;26;20007;-62
2024/04/14 09:33:49;;;;;;;8.25;2.17;;;12.90;99.90;;;;;;5452977;26;20092;-62
2024/04/14 09:36:16;;;;;;;10.18;2.08;;;13.00;99.90;;;;;;5453083;26;20002;-62
2024/04/14 09:38:42;;;;;;;7.20;1.75;;;13.00;99.90;;;;;;5454867;26;20079;-62
2024/04/14 09:41:09;;;;;;;11.02;2.15;;;13.00;99.90;;;;;;5454631;26;20034;-62
2024/04/14 09:43:36;;;;;;;10.15;1.98;;;12.90;99.90;;;;;;5454675;26;20010;-62
2024/04/14 09:46:03;;;;;;;10.55;1.80;;;13.00;99.90;;;;;;5454642;26;20447;-62
2024/04/14 09:48:30;;;;;;;6.80;2.05;;;13.20;99.90;;;;;;5452917;26;20320;-62
2024/04/14 09:50:57;;;;;;;8.65;2.00;;;13.20;99.90;;;;;;5452774;26;20017;-61
2024/04/14 09:53:30;;;;;;;7.97;2.15;;;13.30;99.90;;;;;;5454485;26;20086;-63
2024/04/14 09:55:57;;;;;;;9.63;1.98;;;13.30;99.90;;;;;;5454472;26;20007;-61
2024/04/14 09:58:24;;;;;;;7.57;2.00;;;13.30;99.90;;;;;;5454635;26;20075;-61
2024/04/14 10:00:51;;;;;;;6.90;1.77;;;13.30;99.90;;;;;;5454485;26;20371;-62
2024/04/14 10:03:18;;;;;;;7.55;1.77;;;13.40;99.90;;;;;;5454703;26;20003;-62
2024/04/14 10:05:45;;;;;;;7.38;1.58;;;13.30;99.50;;;;;;5454224;26;20433;-62
2024/04/14 10:08:12;;;;;;;5.82;1.60;;;13.30;99.90;;;;;;5454560;26;20076;-63
2024/04/14 10:10:40;;;;;;;7.97;1.63;;;13.30;99.60;;;;;;5452710;26;20471;-63
2024/04/14 10:13:08;;;;;;;8.30;1.50;;;13.40;99.60;;;;;;5454439;26;19994;-62
2024/04/14 10:15:35;;;;;;;9.70;1.80;;;13.30;99.30;;;;;;5454301;26;20444;-63
2024/04/14 10:18:02;;;;;;;5.93;1.80;;;13.30;97.90;;;;;;5454343;26;19998;-63
2024/04/14 10:20:29;;;;;;;5.68;1.48;;;13.40;96.80;;;;;;5454280;26;20465;-63
2024/04/14 10:22:56;;;;;;;3.92;1.13;;;13.40;97.50;;;;;;5454189;26;20003;-65
2024/04/14 10:25:25;;;;;;;6.93;1.63;;;13.50;96.60;;;;;;5454021;26;20003;-65
2024/04/14 10:27:52;;;;;;;6.38;1.55;;;13.60;97.10;;;;;;5453839;26;20018;-64
2024/04/14 10:30:20;;;;;;;5.22;1.38;;;13.60;95.20;;;;;;5454058;26;20018;-65
2024/04/14 10:32:49;;;;;;;5.43;1.77;;;13.60;95.70;;;;;;5454032;26;20096;-64
2024/04/14 10:35:19;;;;;;;4.57;1.17;;;13.60;95.50;;;;;;5454111;26;20007;-64
2024/04/14 10:37:46;;;;;;;6.55;1.25;;;13.60;95.00;;;;;;5453450;26;20007;-65
2024/04/14 10:40:13;;;;;;;5.10;1.30;;;13.50;94.70;;;;;;5453877;26;20448;-64
2024/04/14 10:42:40;;;;;;;4.22;1.00;;;13.50;94.90;;;;;;5452507;26;20517;-65
2024/04/14 10:45:07;;;;;;;7.18;1.05;;;13.50;94.40;;;;;;5453799;26;20452;-64
2024/04/14 10:47:34;;;;;;;4.15;1.10;;;13.60;93.20;;;;;;5451876;26;20011;-65
2024/04/14 10:50:01;;;;;;;7.50;1.13;;;13.60;93.10;;;;;;5453620;26;20071;-65
2024/04/14 10:52:27;;;;;;;4.82;1.20;;;13.70;92.80;;;;;;5453716;26;20003;-63
2024/04/14 10:54:54;;;;;;;3.15;1.10;;;13.50;92.40;;;;;;5451762;26;20011;-64
2024/04/14 10:57:21;;;;;;;4.95;1.10;;;13.50;92.70;;;;;;5453566;26;20013;-64
2024/04/14 10:59:48;;;;;;;8.45;1.10;;;13.60;93.00;;;;;;5453739;26;20003;-65
2024/04/14 11:02:16;;;;;;;2.85;0.80;;;13.50;93.20;;;;;;5453504;26;20003;-63
2024/04/14 11:04:43;;;;;;;4.35;0.90;;;13.50;92.10;;;;;;5453514;26;20084;-64
2024/04/14 11:07:10;;;;;;;4.10;1.10;;;13.60;93.10;;;;;;5453260;26;19998;-66
2024/04/14 11:09:37;;;;;;;4.75;1.08;;;13.60;92.20;;;;;;5453295;26;20021;-64
2024/04/14 11:12:04;;;;;;;5.45;1.00;;;13.60;91.90;;;;;;5451424;26;20011;-65
2024/04/14 11:14:31;;;;;;;3.67;1.00;;;13.60;93.20;;;;;;5453304;26;20007;-64
2024/04/14 11:16:58;;;;;;;5.47;1.20;;;13.70;92.70;;;;;;5453181;26;20075;-65
2024/04/14 11:19:25;;;;;;;5.40;1.20;;;13.80;92.90;;;;;;5453298;26;20022;-64
2024/04/14 11:21:52;;;;;;;3.15;1.10;;;13.80;92.80;;;;;;5453228;26;20035;-64
2024/04/14 11:24:19;;;;;;;5.32;0.95;;;13.80;92.20;;;;;;5452862;26;20006;-64
2024/04/14 11:26:46;;;;;;;4.07;0.95;;;13.80;93.10;;;;;;5452862;26;20007;-64
2024/04/14 11:29:15;;;;;;;4.22;1.15;;;13.90;92.10;;;;;;5452805;26;20011;-64
2024/04/14 11:31:42;;;;;;;4.55;1.10;;;13.90;92.20;;;;;;5452758;26;20049;-64
2024/04/14 11:34:09;;;;;;;6.05;1.20;;;13.90;91.90;;;;;;5452942;26;20010;-64
2024/04/14 11:36:40;;;;;;;5.05;1.23;;;13.90;91.10;;;;;;5452733;26;19999;-64
2024/04/14 11:39:08;;;;;;;8.15;1.42;;;13.90;92.00;;;;;;5452662;26;20007;-64
2024/04/14 11:41:35;;;;;;;7.68;1.27;;;14.00;92.20;;;;;;5452778;26;20010;-61
2024/04/14 11:44:02;;;;;;;4.78;1.35;;;14.00;92.00;;;;;;5452622;26;20083;-62
2024/04/14 11:46:29;;;;;;;6.13;1.15;;;14.10;92.80;;;;;;5452367;26;19999;-61
2024/04/14 11:48:56;;;;;;;6.28;1.58;;;14.20;92.50;;;;;;5452932;26;20022;-61
2024/04/14 11:51:23;;;;;;;7.43;1.70;;;14.40;91.60;;;;;;5456120;26;20074;-61
2024/04/14 11:53:51;;;;;;;5.53;1.23;;;14.40;91.60;;;;;;5454276;26;20056;-61
2024/04/14 11:56:18;;;;;;;4.28;1.20;;;14.40;92.30;;;;;;5455952;26;20002;-61
2024/04/14 11:58:45;;;;;;;8.35;1.92;;;14.40;92.00;;;;;;5456481;26;20436;-61
2024/04/14 12:01:12;;;;;;;4.95;1.30;;;14.30;92.10;;;;;;5454550;26;20003;-61
2024/04/14 12:03:39;;;;;;;4.53;1.30;;;14.40;92.50;;;;;;5455965;26;20018;-61
2024/04/14 12:06:06;;;;;;;4.10;1.17;;;14.50;92.10;;;;;;5455950;26;19999;-61
2024/04/14 12:08:36;;;;;;;5.43;1.30;;;14.70;92.00;;;;;;5455933;26;20014;-61
2024/04/14 12:11:03;;;;;;;5.72;1.25;;;14.60;92.10;;;;;;5455848;26;20077;-61
2024/04/14 12:13:30;;;;;;;5.18;1.20;;;14.60;91.80;;;;;;5455630;26;20011;-61
2024/04/14 12:15:56;;;;;;;5.82;1.50;;;14.50;91.60;;;;;;5455880;26;20010;-61
2024/04/14 12:18:24;;;;;;;3.92;1.10;;;14.50;91.50;;;;;;5455890;26;20368;-61
2024/04/14 12:20:51;;;;;;;7.05;1.42;;;14.50;91.80;;;;;;5455977;26;20344;-61
2024/04/14 12:23:18;;;;;;;4.90;1.25;;;14.50;91.30;;;;;;5455950;26;20003;-61
2024/04/14 12:25:44;;;;;;;5.93;1.17;;;14.50;91.50;;;;;;5455442;26;20017;-61
2024/04/14 12:28:11;;;;;;;5.82;1.40;;;14.50;91.90;;;;;;5455618;26;20353;-61
2024/04/14 12:30:38;;;;;;;5.07;1.23;;;14.70;91.70;;;;;;5455676;26;20476;-62
2024/04/14 12:33:16;;;;;;;4.68;1.25;;;14.80;91.90;;;;;;5455646;26;20498;-61
2024/04/14 12:35:43;;;;;;;4.97;1.58;;;15.00;92.30;;;;;;5453840;26;20350;-61
2024/04/14 12:38:10;;;;;;;5.90;1.40;;;15.10;92.50;;;;;;5455843;26;20003;-61
2024/04/14 12:40:37;;;;;;;5.60;1.48;;;15.10;91.60;;;;;;5455934;26;20013;-61
2024/04/14 12:43:04;;;;;;;4.63;1.23;;;15.00;92.20;;;;;;5455656;26;20014;-61